Airfield :
LOGIN :

Register | Disclaimer

   EN    FR    IT 

 










Legend :    VFR   Marginal VFR   IFR   Intensive IFR   Very Intensive IFR
Visi :
Ceiling :
>= 8 km
>= 3000ft
5 to 8 km
1000 to 3000 ft
1500m to 5 km
500 to 1000 ft
800 to 1500m
200 to 500 ft
< 800m
< 200 ft
Symbols :   Thunderstorms  Fog  Heavy snow  Heavy precipitations  Wind > 20 kt
SIGMETs :     Misc.  Thunderstorms  Icing  Turbulence  Mountain Waves  Volcanic Ashes







- Airport Elevation : 220 ft
- IATA code : CWL
- Download approach charts


EGFF - Cardiff Rhoose

CURRENT METAR :
  • 162350Z AUTO 10010KT 9999 OVC011 09/08 Q1017

EXPIRED METARs :
  • 162320Z AUTO 11012KT 9999 OVC010 09/08 Q1017
  • 162250Z AUTO 12011KT 9999 BKN012 09/08 Q1017
  • 162220Z AUTO 14009KT 9999 BKN011 OVC016 09/08 Q1018
  • 162150Z AUTO 10009KT 9999 OVC011 09/08 Q1018
  • 162120Z AUTO 11009KT 9999 BKN013 OVC017 09/08 Q1019

TAF TAF EGFF
Valid from the 17 at 00:00 until the 18 at 00:00 UTC


162253Z 1700/1724 11010KT 9999 BKN012
TEMPO 1700/1703 4000 DZ BKN006
PROB30
TEMPO 1700/1703 1200 BR BKN002
BECMG 1702/1705 FEW040
PROB30
TEMPO 1703/1709 8000
BECMG 1709/1712 19012KT
TEMPO 1709/1713 20015G25KT 8000 RA BKN012
ATIS : +44 1446 729 319
No reported NOTAMs for that airfield.



MET'MAP, your aeronautical weather chart ! - Copyright ORBIFLY December 2007 - Disclaimer

ORBIFLY MET'MAP TEAM :

Programming & Development : Alexandra Zaïnal
Concept & Development : Baudouin d'Aumeries
Co-Development & Prog : Marc-Olivier Méhu
Technical & hardware support : Manuel Goepfert

Contact : metmap@orbifly.com




SOURCES & CREDITS :

   NOAA